sensor_id;sensor_type;location;lat;lon;timestamp;P1;durP1;ratioP1;P2;durP2;ratioP2
37873;SDS011;23709;48.078;11.684;2023-11-19T00:00:40;6.55;;;3.63;;
37873;SDS011;23709;48.078;11.684;2023-11-19T00:03:23;8.23;;;4.80;;
37873;SDS011;23709;48.078;11.684;2023-11-19T00:05:55;8.85;;;5.18;;
37873;SDS011;23709;48.078;11.684;2023-11-19T00:08:27;5.80;;;4.03;;
37873;SDS011;23709;48.078;11.684;2023-11-19T00:11:00;5.93;;;3.25;;
37873;SDS011;23709;48.078;11.684;2023-11-19T00:13:33;7.50;;;3.78;;
37873;SDS011;23709;48.078;11.684;2023-11-19T00:16:05;7.20;;;4.40;;
37873;SDS011;23709;48.078;11.684;2023-11-19T00:18:40;7.65;;;4.15;;
37873;SDS011;23709;48.078;11.684;2023-11-19T00:21:12;5.30;;;4.03;;
37873;SDS011;23709;48.078;11.684;2023-11-19T00:23:45;7.50;;;3.78;;
37873;SDS011;23709;48.078;11.684;2023-11-19T00:26:17;6.40;;;3.70;;
37873;SDS011;23709;48.078;11.684;2023-11-19T00:28:54;12.20;;;5.78;;
37873;SDS011;23709;48.078;11.684;2023-11-19T00:34:01;11.97;;;5.60;;
37873;SDS011;23709;48.078;11.684;2023-11-19T00:36:34;11.45;;;5.88;;
37873;SDS011;23709;48.078;11.684;2023-11-19T00:39:07;6.60;;;4.53;;
37873;SDS011;23709;48.078;11.684;2023-11-19T00:41:39;7.53;;;4.72;;
37873;SDS011;23709;48.078;11.684;2023-11-19T00:44:12;10.00;;;4.82;;
37873;SDS011;23709;48.078;11.684;2023-11-19T00:46:44;5.88;;;3.75;;
37873;SDS011;23709;48.078;11.684;2023-11-19T00:49:17;8.35;;;4.45;;
37873;SDS011;23709;48.078;11.684;2023-11-19T00:51:49;5.30;;;3.40;;
37873;SDS011;23709;48.078;11.684;2023-11-19T00:54:21;6.10;;;3.70;;
37873;SDS011;23709;48.078;11.684;2023-11-19T00:56:57;4.88;;;3.05;;
37873;SDS011;23709;48.078;11.684;2023-11-19T00:59:29;5.32;;;3.03;;
37873;SDS011;23709;48.078;11.684;2023-11-19T01:02:02;6.22;;;3.70;;
37873;SDS011;23709;48.078;11.684;2023-11-19T01:04:35;8.40;;;4.03;;
37873;SDS011;23709;48.078;11.684;2023-11-19T01:07:08;8.27;;;3.85;;
37873;SDS011;23709;48.078;11.684;2023-11-19T01:09:45;7.63;;;4.60;;
37873;SDS011;23709;48.078;11.684;2023-11-19T01:12:18;6.03;;;3.75;;
37873;SDS011;23709;48.078;11.684;2023-11-19T01:14:50;6.90;;;3.70;;
37873;SDS011;23709;48.078;11.684;2023-11-19T01:17:23;8.18;;;4.50;;
37873;SDS011;23709;48.078;11.684;2023-11-19T01:19:55;5.32;;;3.40;;
37873;SDS011;23709;48.078;11.684;2023-11-19T01:22:27;8.63;;;4.88;;
37873;SDS011;23709;48.078;11.684;2023-11-19T01:24:59;8.15;;;3.47;;
37873;SDS011;23709;48.078;11.684;2023-11-19T01:27:32;7.47;;;3.90;;
37873;SDS011;23709;48.078;11.684;2023-11-19T01:30:08;7.57;;;3.67;;
37873;SDS011;23709;48.078;11.684;2023-11-19T01:32:44;6.07;;;3.58;;
37873;SDS011;23709;48.078;11.684;2023-11-19T01:35:17;4.53;;;2.83;;
37873;SDS011;23709;48.078;11.684;2023-11-19T01:37:49;4.15;;;2.83;;
37873;SDS011;23709;48.078;11.684;2023-11-19T01:40:22;4.28;;;3.10;;
37873;SDS011;23709;48.078;11.684;2023-11-19T01:42:54;3.17;;;2.35;;
37873;SDS011;23709;48.078;11.684;2023-11-19T01:45:27;4.95;;;2.58;;
37873;SDS011;23709;48.078;11.684;2023-11-19T01:48:02;3.95;;;2.70;;
37873;SDS011;23709;48.078;11.684;2023-11-19T01:50:38;4.43;;;2.85;;
37873;SDS011;23709;48.078;11.684;2023-11-19T01:53:11;5.18;;;2.65;;
37873;SDS011;23709;48.078;11.684;2023-11-19T01:55:43;4.88;;;2.90;;
37873;SDS011;23709;48.078;11.684;2023-11-19T01:58:18;5.20;;;2.83;;
37873;SDS011;23709;48.078;11.684;2023-11-19T02:00:51;4.53;;;2.72;;
37873;SDS011;23709;48.078;11.684;2023-11-19T02:03:25;4.13;;;2.88;;
37873;SDS011;23709;48.078;11.684;2023-11-19T02:06:01;5.18;;;3.10;;
37873;SDS011;23709;48.078;11.684;2023-11-19T02:11:07;5.47;;;2.85;;
37873;SDS011;23709;48.078;11.684;2023-11-19T02:13:40;6.90;;;3.23;;
37873;SDS011;23709;48.078;11.684;2023-11-19T02:16:13;5.25;;;2.88;;
37873;SDS011;23709;48.078;11.684;2023-11-19T02:18:46;6.22;;;3.15;;
37873;SDS011;23709;48.078;11.684;2023-11-19T02:21:18;4.45;;;2.97;;
37873;SDS011;23709;48.078;11.684;2023-11-19T02:23:51;7.13;;;3.47;;
37873;SDS011;23709;48.078;11.684;2023-11-19T02:29:04;5.70;;;3.55;;
37873;SDS011;23709;48.078;11.684;2023-11-19T02:31:39;7.63;;;4.50;;
37873;SDS011;23709;48.078;11.684;2023-11-19T02:34:12;6.93;;;4.00;;
37873;SDS011;23709;48.078;11.684;2023-11-19T02:36:44;7.77;;;4.47;;
37873;SDS011;23709;48.078;11.684;2023-11-19T02:39:18;9.00;;;4.65;;
37873;SDS011;23709;48.078;11.684;2023-11-19T02:41:53;6.57;;;3.42;;
37873;SDS011;23709;48.078;11.684;2023-11-19T02:44:25;5.88;;;3.17;;
37873;SDS011;23709;48.078;11.684;2023-11-19T02:47:02;6.10;;;3.40;;
37873;SDS011;23709;48.078;11.684;2023-11-19T02:49:37;3.78;;;2.65;;
37873;SDS011;23709;48.078;11.684;2023-11-19T02:52:09;5.43;;;3.08;;
37873;SDS011;23709;48.078;11.684;2023-11-19T02:54:42;5.97;;;2.93;;
37873;SDS011;23709;48.078;11.684;2023-11-19T02:57:16;3.08;;;2.40;;
37873;SDS011;23709;48.078;11.684;2023-11-19T02:59:53;11.85;;;2.97;;
37873;SDS011;23709;48.078;11.684;2023-11-19T03:02:27;4.30;;;2.33;;
37873;SDS011;23709;48.078;11.684;2023-11-19T03:05:06;5.53;;;2.42;;
37873;SDS011;23709;48.078;11.684;2023-11-19T03:07:43;3.35;;;2.20;;
37873;SDS011;23709;48.078;11.684;2023-11-19T03:10:15;5.05;;;2.70;;
37873;SDS011;23709;48.078;11.684;2023-11-19T03:12:48;6.90;;;2.75;;
37873;SDS011;23709;48.078;11.684;2023-11-19T03:15:20;7.05;;;2.70;;
37873;SDS011;23709;48.078;11.684;2023-11-19T03:17:52;6.85;;;3.25;;
37873;SDS011;23709;48.078;11.684;2023-11-19T03:22:59;7.82;;;3.58;;
37873;SDS011;23709;48.078;11.684;2023-11-19T03:25:34;4.20;;;3.13;;
37873;SDS011;23709;48.078;11.684;2023-11-19T03:28:08;5.88;;;3.35;;
37873;SDS011;23709;48.078;11.684;2023-11-19T03:30:40;6.97;;;3.35;;
37873;SDS011;23709;48.078;11.684;2023-11-19T03:33:13;5.50;;;3.35;;
37873;SDS011;23709;48.078;11.684;2023-11-19T03:35:45;4.25;;;2.80;;
37873;SDS011;23709;48.078;11.684;2023-11-19T03:38:18;5.65;;;2.75;;
37873;SDS011;23709;48.078;11.684;2023-11-19T03:40:50;4.60;;;3.03;;
37873;SDS011;23709;48.078;11.684;2023-11-19T03:43:23;7.80;;;3.55;;
37873;SDS011;23709;48.078;11.684;2023-11-19T03:45:55;4.45;;;3.08;;
37873;SDS011;23709;48.078;11.684;2023-11-19T03:48:27;6.22;;;2.65;;
37873;SDS011;23709;48.078;11.684;2023-11-19T03:51:00;6.33;;;4.03;;
37873;SDS011;23709;48.078;11.684;2023-11-19T03:53:32;6.68;;;4.88;;
37873;SDS011;23709;48.078;11.684;2023-11-19T03:58:40;6.35;;;4.53;;
37873;SDS011;23709;48.078;11.684;2023-11-19T04:01:13;4.33;;;3.00;;
37873;SDS011;23709;48.078;11.684;2023-11-19T04:03:46;5.10;;;2.97;;
37873;SDS011;23709;48.078;11.684;2023-11-19T04:06:23;4.78;;;2.72;;
37873;SDS011;23709;48.078;11.684;2023-11-19T04:08:55;3.70;;;2.27;;
37873;SDS011;23709;48.078;11.684;2023-11-19T04:11:28;3.53;;;2.15;;
37873;SDS011;23709;48.078;11.684;2023-11-19T04:14:00;3.70;;;2.63;;
37873;SDS011;23709;48.078;11.684;2023-11-19T04:16:33;2.30;;;1.92;;
37873;SDS011;23709;48.078;11.684;2023-11-19T04:19:05;3.75;;;2.10;;
37873;SDS011;23709;48.078;11.684;2023-11-19T04:21:39;7.57;;;2.58;;
37873;SDS011;23709;48.078;11.684;2023-11-19T04:24:15;8.20;;;6.38;;
37873;SDS011;23709;48.078;11.684;2023-11-19T04:26:47;6.38;;;4.65;;
37873;SDS011;23709;48.078;11.684;2023-11-19T04:29:19;10.13;;;3.55;;
37873;SDS011;23709;48.078;11.684;2023-11-19T04:31:52;9.57;;;4.80;;
37873;SDS011;23709;48.078;11.684;2023-11-19T04:36:58;11.60;;;5.13;;
37873;SDS011;23709;48.078;11.684;2023-11-19T04:39:44;10.00;;;4.18;;
37873;SDS011;23709;48.078;11.684;2023-11-19T04:42:18;5.95;;;3.15;;
37873;SDS011;23709;48.078;11.684;2023-11-19T04:44:51;4.78;;;2.92;;
37873;SDS011;23709;48.078;11.684;2023-11-19T04:47:24;4.70;;;3.00;;
37873;SDS011;23709;48.078;11.684;2023-11-19T04:49:56;5.53;;;2.70;;
37873;SDS011;23709;48.078;11.684;2023-11-19T04:52:29;4.80;;;1.90;;
37873;SDS011;23709;48.078;11.684;2023-11-19T04:55:01;3.65;;;2.15;;
37873;SDS011;23709;48.078;11.684;2023-11-19T04:57:34;2.42;;;1.73;;
37873;SDS011;23709;48.078;11.684;2023-11-19T05:00:06;2.72;;;1.60;;
37873;SDS011;23709;48.078;11.684;2023-11-19T05:02:42;1.83;;;1.17;;
37873;SDS011;23709;48.078;11.684;2023-11-19T05:05:15;7.82;;;2.42;;
37873;SDS011;23709;48.078;11.684;2023-11-19T05:07:48;7.82;;;2.00;;
37873;SDS011;23709;48.078;11.684;2023-11-19T05:10:21;4.47;;;1.80;;
37873;SDS011;23709;48.078;11.684;2023-11-19T05:12:53;2.15;;;1.63;;
37873;SDS011;23709;48.078;11.684;2023-11-19T05:15:27;2.00;;;1.38;;
37873;SDS011;23709;48.078;11.684;2023-11-19T05:18:00;3.50;;;1.77;;
37873;SDS011;23709;48.078;11.684;2023-11-19T05:20:32;2.88;;;1.58;;
37873;SDS011;23709;48.078;11.684;2023-11-19T05:23:04;2.38;;;1.60;;
37873;SDS011;23709;48.078;11.684;2023-11-19T05:25:37;1.00;;;0.90;;
37873;SDS011;23709;48.078;11.684;2023-11-19T05:28:09;2.05;;;1.48;;
37873;SDS011;23709;48.078;11.684;2023-11-19T05:30:42;2.20;;;1.70;;
37873;SDS011;23709;48.078;11.684;2023-11-19T05:33:14;2.30;;;1.42;;
37873;SDS011;23709;48.078;11.684;2023-11-19T05:35:47;1.55;;;1.15;;
37873;SDS011;23709;48.078;11.684;2023-11-19T05:38:20;3.47;;;1.55;;
37873;SDS011;23709;48.078;11.684;2023-11-19T05:40:52;4.90;;;1.50;;
37873;SDS011;23709;48.078;11.684;2023-11-19T05:43:25;3.97;;;1.80;;
37873;SDS011;23709;48.078;11.684;2023-11-19T05:45:57;2.42;;;1.25;;
37873;SDS011;23709;48.078;11.684;2023-11-19T05:48:30;3.13;;;1.40;;
37873;SDS011;23709;48.078;11.684;2023-11-19T05:51:02;1.73;;;1.50;;
37873;SDS011;23709;48.078;11.684;2023-11-19T05:53:34;2.95;;;1.48;;
37873;SDS011;23709;48.078;11.684;2023-11-19T05:56:08;2.05;;;1.42;;
37873;SDS011;23709;48.078;11.684;2023-11-19T05:58:41;5.07;;;1.70;;
37873;SDS011;23709;48.078;11.684;2023-11-19T06:01:16;1.65;;;1.23;;
37873;SDS011;23709;48.078;11.684;2023-11-19T06:03:49;2.23;;;1.40;;
37873;SDS011;23709;48.078;11.684;2023-11-19T06:06:22;1.63;;;1.10;;
37873;SDS011;23709;48.078;11.684;2023-11-19T06:08:55;1.60;;;1.10;;
37873;SDS011;23709;48.078;11.684;2023-11-19T06:11:28;1.25;;;1.10;;
37873;SDS011;23709;48.078;11.684;2023-11-19T06:14:01;0.80;;;0.80;;
37873;SDS011;23709;48.078;11.684;2023-11-19T06:16:34;2.10;;;1.20;;
37873;SDS011;23709;48.078;11.684;2023-11-19T06:19:08;2.92;;;1.08;;
37873;SDS011;23709;48.078;11.684;2023-11-19T06:24:15;2.88;;;1.70;;
37873;SDS011;23709;48.078;11.684;2023-11-19T06:26:47;2.78;;;1.20;;
37873;SDS011;23709;48.078;11.684;2023-11-19T06:29:19;9.45;;;4.80;;
37873;SDS011;23709;48.078;11.684;2023-11-19T06:31:51;1.90;;;1.40;;
37873;SDS011;23709;48.078;11.684;2023-11-19T06:34:24;1.38;;;1.00;;
37873;SDS011;23709;48.078;11.684;2023-11-19T06:36:56;2.55;;;0.75;;
37873;SDS011;23709;48.078;11.684;2023-11-19T06:39:28;2.55;;;1.10;;
37873;SDS011;23709;48.078;11.684;2023-11-19T06:42:01;0.60;;;0.60;;
37873;SDS011;23709;48.078;11.684;2023-11-19T06:44:33;1.65;;;1.02;;
37873;SDS011;23709;48.078;11.684;2023-11-19T06:47:06;1.00;;;0.80;;
37873;SDS011;23709;48.078;11.684;2023-11-19T06:49:38;1.42;;;1.00;;
37873;SDS011;23709;48.078;11.684;2023-11-19T06:52:11;1.00;;;0.90;;
37873;SDS011;23709;48.078;11.684;2023-11-19T06:54:43;1.38;;;1.13;;
37873;SDS011;23709;48.078;11.684;2023-11-19T06:57:17;1.20;;;0.65;;
37873;SDS011;23709;48.078;11.684;2023-11-19T06:59:49;1.98;;;1.23;;
37873;SDS011;23709;48.078;11.684;2023-11-19T07:02:22;1.27;;;1.13;;
37873;SDS011;23709;48.078;11.684;2023-11-19T07:04:58;1.08;;;0.98;;
37873;SDS011;23709;48.078;11.684;2023-11-19T07:07:33;1.17;;;0.60;;
37873;SDS011;23709;48.078;11.684;2023-11-19T07:10:05;1.38;;;1.15;;
37873;SDS011;23709;48.078;11.684;2023-11-19T07:12:41;0.40;;;0.40;;
37873;SDS011;23709;48.078;11.684;2023-11-19T07:15:13;2.10;;;0.60;;
37873;SDS011;23709;48.078;11.684;2023-11-19T07:17:46;1.83;;;0.52;;
37873;SDS011;23709;48.078;11.684;2023-11-19T07:20:33;0.82;;;0.60;;
37873;SDS011;23709;48.078;11.684;2023-11-19T07:23:05;0.80;;;0.70;;
37873;SDS011;23709;48.078;11.684;2023-11-19T07:25:37;0.90;;;0.60;;
37873;SDS011;23709;48.078;11.684;2023-11-19T07:28:10;0.40;;;0.40;;
37873;SDS011;23709;48.078;11.684;2023-11-19T07:30:42;1.13;;;0.70;;
37873;SDS011;23709;48.078;11.684;2023-11-19T07:33:15;1.48;;;1.13;;
37873;SDS011;23709;48.078;11.684;2023-11-19T07:35:47;1.50;;;1.20;;
37873;SDS011;23709;48.078;11.684;2023-11-19T07:38:20;3.75;;;1.27;;
37873;SDS011;23709;48.078;11.684;2023-11-19T07:40:53;1.42;;;1.10;;
37873;SDS011;23709;48.078;11.684;2023-11-19T07:43:28;1.23;;;0.80;;
37873;SDS011;23709;48.078;11.684;2023-11-19T07:46:00;1.65;;;0.90;;
37873;SDS011;23709;48.078;11.684;2023-11-19T07:48:33;1.27;;;0.80;;
37873;SDS011;23709;48.078;11.684;2023-11-19T07:51:06;0.98;;;0.68;;
37873;SDS011;23709;48.078;11.684;2023-11-19T07:53:39;1.70;;;0.73;;
37873;SDS011;23709;48.078;11.684;2023-11-19T07:56:12;0.60;;;0.50;;
37873;SDS011;23709;48.078;11.684;2023-11-19T07:58:45;0.85;;;0.52;;
37873;SDS011;23709;48.078;11.684;2023-11-19T08:01:17;3.60;;;2.72;;
37873;SDS011;23709;48.078;11.684;2023-11-19T08:03:49;0.90;;;0.70;;
37873;SDS011;23709;48.078;11.684;2023-11-19T08:06:25;1.75;;;0.50;;
37873;SDS011;23709;48.078;11.684;2023-11-19T08:08:58;0.57;;;0.50;;
37873;SDS011;23709;48.078;11.684;2023-11-19T08:11:31;1.05;;;0.75;;
37873;SDS011;23709;48.078;11.684;2023-11-19T08:14:04;2.00;;;0.65;;
37873;SDS011;23709;48.078;11.684;2023-11-19T08:16:36;2.33;;;0.82;;
37873;SDS011;23709;48.078;11.684;2023-11-19T08:19:10;1.45;;;0.82;;
37873;SDS011;23709;48.078;11.684;2023-11-19T08:21:42;1.13;;;0.60;;
37873;SDS011;23709;48.078;11.684;2023-11-19T08:24:14;1.25;;;0.73;;
37873;SDS011;23709;48.078;11.684;2023-11-19T08:26:47;1.52;;;0.98;;
37873;SDS011;23709;48.078;11.684;2023-11-19T08:29:33;1.48;;;1.00;;
37873;SDS011;23709;48.078;11.684;2023-11-19T08:32:06;1.38;;;1.10;;
37873;SDS011;23709;48.078;11.684;2023-11-19T08:34:39;2.63;;;0.55;;
37873;SDS011;23709;48.078;11.684;2023-11-19T08:37:11;0.80;;;0.60;;
37873;SDS011;23709;48.078;11.684;2023-11-19T08:39:44;0.52;;;0.43;;
37873;SDS011;23709;48.078;11.684;2023-11-19T08:42:18;1.38;;;0.65;;
37873;SDS011;23709;48.078;11.684;2023-11-19T08:44:51;1.27;;;1.02;;
37873;SDS011;23709;48.078;11.684;2023-11-19T08:47:26;4.20;;;2.35;;
37873;SDS011;23709;48.078;11.684;2023-11-19T08:49:58;2.75;;;1.60;;
37873;SDS011;23709;48.078;11.684;2023-11-19T08:52:33;1.25;;;0.82;;
37873;SDS011;23709;48.078;11.684;2023-11-19T08:55:06;1.23;;;0.90;;
37873;SDS011;23709;48.078;11.684;2023-11-19T08:57:39;1.00;;;0.65;;
37873;SDS011;23709;48.078;11.684;2023-11-19T09:00:12;1.63;;;0.90;;
37873;SDS011;23709;48.078;11.684;2023-11-19T09:02:46;0.93;;;0.63;;
37873;SDS011;23709;48.078;11.684;2023-11-19T09:05:18;0.50;;;0.50;;
37873;SDS011;23709;48.078;11.684;2023-11-19T09:07:51;0.70;;;0.70;;
37873;SDS011;23709;48.078;11.684;2023-11-19T09:10:24;1.95;;;0.80;;
37873;SDS011;23709;48.078;11.684;2023-11-19T09:12:56;1.60;;;0.80;;
37873;SDS011;23709;48.078;11.684;2023-11-19T09:15:29;1.15;;;0.80;;
37873;SDS011;23709;48.078;11.684;2023-11-19T09:18:02;3.33;;;0.93;;
37873;SDS011;23709;48.078;11.684;2023-11-19T09:20:36;3.60;;;0.70;;
37873;SDS011;23709;48.078;11.684;2023-11-19T09:23:11;0.90;;;0.55;;
37873;SDS011;23709;48.078;11.684;2023-11-19T09:25:44;0.75;;;0.70;;
37873;SDS011;23709;48.078;11.684;2023-11-19T09:28:16;1.52;;;0.75;;
37873;SDS011;23709;48.078;11.684;2023-11-19T09:30:49;0.75;;;0.47;;
37873;SDS011;23709;48.078;11.684;2023-11-19T09:33:21;0.88;;;0.75;;
37873;SDS011;23709;48.078;11.684;2023-11-19T09:35:54;0.80;;;0.63;;
37873;SDS011;23709;48.078;11.684;2023-11-19T09:38:26;3.75;;;2.80;;
37873;SDS011;23709;48.078;11.684;2023-11-19T09:40:59;1.02;;;0.75;;
37873;SDS011;23709;48.078;11.684;2023-11-19T09:43:34;1.20;;;0.90;;
37873;SDS011;23709;48.078;11.684;2023-11-19T09:46:12;1.42;;;0.70;;
37873;SDS011;23709;48.078;11.684;2023-11-19T09:48:47;1.58;;;0.88;;
37873;SDS011;23709;48.078;11.684;2023-11-19T09:51:24;3.80;;;1.02;;
37873;SDS011;23709;48.078;11.684;2023-11-19T09:53:57;1.08;;;0.65;;
37873;SDS011;23709;48.078;11.684;2023-11-19T09:56:29;0.95;;;0.85;;
37873;SDS011;23709;48.078;11.684;2023-11-19T09:59:02;2.38;;;0.90;;
37873;SDS011;23709;48.078;11.684;2023-11-19T10:01:35;0.50;;;0.50;;
37873;SDS011;23709;48.078;11.684;2023-11-19T10:04:09;2.35;;;0.75;;
37873;SDS011;23709;48.078;11.684;2023-11-19T10:06:44;0.95;;;0.65;;
37873;SDS011;23709;48.078;11.684;2023-11-19T10:09:16;3.00;;;0.60;;
37873;SDS011;23709;48.078;11.684;2023-11-19T10:11:49;0.93;;;0.60;;
37873;SDS011;23709;48.078;11.684;2023-11-19T10:14:22;0.73;;;0.73;;
37873;SDS011;23709;48.078;11.684;2023-11-19T10:16:55;1.55;;;0.60;;
37873;SDS011;23709;48.078;11.684;2023-11-19T10:19:28;0.95;;;0.70;;
37873;SDS011;23709;48.078;11.684;2023-11-19T10:22:02;0.63;;;0.60;;
37873;SDS011;23709;48.078;11.684;2023-11-19T10:24:36;1.05;;;0.80;;
37873;SDS011;23709;48.078;11.684;2023-11-19T10:27:17;0.98;;;0.75;;
37873;SDS011;23709;48.078;11.684;2023-11-19T10:29:49;1.57;;;0.80;;
37873;SDS011;23709;48.078;11.684;2023-11-19T10:32:22;2.22;;;0.73;;
37873;SDS011;23709;48.078;11.684;2023-11-19T10:35:07;1.08;;;0.90;;
37873;SDS011;23709;48.078;11.684;2023-11-19T10:37:40;2.38;;;0.82;;
37873;SDS011;23709;48.078;11.684;2023-11-19T10:40:12;1.25;;;0.80;;
37873;SDS011;23709;48.078;11.684;2023-11-19T10:42:46;1.95;;;0.43;;
37873;SDS011;23709;48.078;11.684;2023-11-19T10:45:22;1.38;;;0.40;;
37873;SDS011;23709;48.078;11.684;2023-11-19T10:47:59;1.10;;;0.50;;
37873;SDS011;23709;48.078;11.684;2023-11-19T10:50:34;0.40;;;0.40;;
37873;SDS011;23709;48.078;11.684;2023-11-19T10:53:10;0.60;;;0.50;;
37873;SDS011;23709;48.078;11.684;2023-11-19T10:55:46;0.60;;;0.50;;
37873;SDS011;23709;48.078;11.684;2023-11-19T10:58:20;0.45;;;0.45;;
